.
WxDataArchive / Data Records for 2011-08-27
2011-08-26 August 2011 2011-08-28

Data Records for Saturday, 27 August 2011

Time	Temp	Chill	HIndex	Humid	Dewpt	 Wind 	HiWind	WindDir	Rain 	Barom 
-----	----	-----	------	-----	-----	------	------	-------	-----	----- 
00:00	65.6	65.6	65.6	87	61.6	0	0	---	0.00	29.927 
00:05	65.5	65.5	65.5	87	61.5	0	0	---	0.00	29.927 
00:10	65.3	65.3	65.3	87	61.3	0	0	---	0.00	29.927 
00:15	65.3	65.3	65.3	88	61.6	0	0	---	0.00	29.924 
00:20	65.2	65.2	65.2	88	61.6	0	0	---	0.00	29.924 
00:25	65.0	65.0	65.0	88	61.4	0	0	---	0.00	29.924 
00:30	65.0	65.0	65.0	88	61.4	0	0	---	0.00	29.923 
00:35	64.8	64.8	64.8	89	61.5	0	0	---	0.00	29.923 
00:40	64.7	64.7	64.7	89	61.4	0	0	---	0.00	29.923 
00:45	64.7	64.7	64.7	89	61.4	0	0	---	0.00	29.921 
00:50	64.5	64.5	64.5	89	61.2	0	0	---	0.00	29.921 
00:55	64.5	64.5	64.5	90	61.5	0	0	---	0.00	29.921 
01:00	64.3	64.3	64.3	90	61.3	0	0	---	0.00	29.918 
01:05	64.2	64.2	64.2	90	61.2	0	0	---	0.00	29.918 
01:10	64.0	64.0	64.0	90	61.0	0	0	---	0.00	29.918 
01:15	64.0	64.0	64.0	91	61.3	0	0	---	0.00	29.906 
01:20	63.9	63.9	63.9	91	61.2	0	0	---	0.00	29.906 
01:25	63.7	63.7	63.7	91	61.0	0	0	---	0.00	29.906 
01:30	63.7	63.7	63.7	91	61.0	0	0	---	0.00	29.905 
01:35	63.5	63.5	63.5	91	60.8	0	0	---	0.00	29.905 
01:40	63.4	63.4	63.4	91	60.7	0	0	---	0.00	29.905 
01:45	63.2	63.2	63.2	91	60.5	0	0	---	0.00	29.908 
01:50	63.1	63.1	63.1	92	60.7	0	0	---	0.00	29.908 
01:55	62.9	62.9	62.9	92	60.5	0	0	---	0.00	29.908 
02:00	62.9	62.9	62.9	92	60.5	0	0	---	0.00	29.907 
02:05	62.7	62.7	62.7	92	60.3	0	0	---	0.00	29.907 
02:10	62.7	62.7	62.7	92	60.3	0	0	---	0.00	29.907 
02:15	62.6	62.6	62.6	92	60.2	0	0	---	0.00	29.905 
02:20	62.4	62.4	62.4	92	60.0	0	0	---	0.00	29.905 
02:25	62.3	62.3	62.3	92	59.9	0	0	---	0.00	29.905 
02:30	62.3	62.3	62.3	92	59.9	0	0	---	0.00	29.895 
02:35	62.1	62.1	62.1	92	59.7	0	0	---	0.00	29.895 
02:40	62.0	62.0	62.0	92	59.6	0	0	---	0.00	29.895 
02:45	61.8	61.8	61.8	92	59.4	0	0	---	0.00	29.892 
02:50	61.8	61.8	61.8	93	59.8	0	0	---	0.00	29.892 
02:55	61.8	61.8	61.8	93	59.8	0	0	---	0.00	29.892 
03:00	61.8	61.8	61.8	93	59.8	0	0	---	0.00	29.891 
03:05	61.8	61.8	61.8	93	59.8	0	0	---	0.00	29.891 
03:10	61.6	61.6	61.6	93	59.6	0	0	---	0.00	29.891 
03:15	61.6	61.6	61.6	93	59.6	0	0	---	0.00	29.892 
03:20	61.5	61.5	61.5	93	59.5	0	0	---	0.00	29.892 
03:25	61.5	61.5	61.5	93	59.5	0	0	---	0.00	29.892 
03:30	61.3	61.3	61.3	93	59.3	0	0	---	0.00	29.891 
03:35	61.3	61.3	61.3	93	59.3	0	0	---	0.00	29.891 
03:40	61.3	61.3	61.3	94	59.6	0	0	---	0.00	29.891 
03:45	61.3	61.3	61.3	94	59.6	0	0	---	0.00	29.891 
03:50	61.2	61.2	61.2	94	59.5	0	0	---	0.00	29.891 
03:55	61.2	61.2	61.2	94	59.5	0	0	---	0.00	29.891 
04:00	61.2	61.2	61.2	94	59.5	0	0	---	0.00	29.890 
04:05	61.0	61.0	61.0	93	59.0	0	0	---	0.00	29.890 
04:10	60.7	60.7	60.7	94	59.0	0	0	---	0.00	29.890 
04:15	60.7	60.7	60.7	94	59.0	0	0	---	0.00	29.890 
04:20	60.5	60.5	60.5	94	58.8	0	0	---	0.00	29.890 
04:25	60.5	60.5	60.5	94	58.8	0	0	---	0.00	29.890 
04:30	60.5	60.5	60.5	94	58.8	0	0	---	0.00	29.889 
04:35	60.4	60.4	60.4	94	58.7	0	0	---	0.00	29.889 
04:40	60.4	60.4	60.4	94	58.7	0	0	---	0.00	29.889 
04:45	60.4	60.4	60.4	94	58.7	0	0	---	0.00	29.887 
04:50	60.2	60.2	60.2	94	58.5	0	0	---	0.00	29.887 
04:55	60.1	60.1	60.1	94	58.4	0	0	---	0.00	29.887 
05:00	60.1	60.1	60.1	94	58.4	0	0	---	0.00	29.889 
05:05	59.9	59.9	59.9	94	58.2	0	0	---	0.00	29.889 
05:10	59.8	59.8	59.8	94	58.1	0	0	---	0.00	29.889 
05:15	59.6	59.6	59.6	94	57.9	0	0	---	0.00	29.888 
05:20	59.6	59.6	59.6	94	57.9	0	0	---	0.00	29.888 
05:25	59.6	59.6	59.6	94	57.9	0	0	---	0.00	29.888 
05:30	59.5	59.5	59.5	94	57.8	0	0	---	0.00	29.880 
05:35	59.5	59.5	59.5	94	57.8	0	0	---	0.00	29.880 
05:40	59.3	59.3	59.3	94	57.6	0	0	---	0.00	29.880 
05:45	59.3	59.3	59.3	94	57.6	0	0	---	0.00	29.884 
05:50	59.2	59.2	59.2	94	57.5	0	0	---	0.00	29.884 
05:55	59.2	59.2	59.2	94	57.5	0	0	---	0.00	29.884 
06:00	59.0	59.0	59.0	94	57.3	0	0	---	0.00	29.880 
06:05	59.0	59.0	59.0	95	57.6	0	0	---	0.00	29.880 
06:10	59.2	59.2	59.2	95	57.8	0	0	---	0.00	29.880 
06:15	59.0	59.0	59.0	94	57.3	0	0	---	0.00	29.884 
06:20	58.9	58.9	58.9	94	57.2	0	0	---	0.00	29.884 
06:25	58.9	58.9	58.9	94	57.2	0	0	---	0.00	29.884 
06:30	58.7	58.7	58.7	95	57.3	0	0	---	0.00	29.886 
06:35	58.7	58.7	58.7	95	57.3	0	0	---	0.00	29.886 
06:40	58.7	58.7	58.7	95	57.3	0	0	---	0.00	29.886 
06:45	58.6	58.6	58.6	95	57.2	0	0	---	0.00	29.893 
06:50	58.6	58.6	58.6	95	57.2	0	0	---	0.00	29.893 
06:55	58.6	58.6	58.6	95	57.2	0	0	---	0.00	29.893 
07:00	58.6	58.6	58.6	95	57.2	0	0	---	0.00	29.892 
07:05	58.6	58.6	58.6	95	57.2	0	0	---	0.00	29.892 
07:10	58.6	58.6	58.6	95	57.2	0	0	---	0.00	29.892 
07:15	58.6	58.6	58.6	95	57.2	0	0	---	0.00	29.897 
07:20	58.6	58.6	58.6	95	57.2	0	0	---	0.00	29.897 
07:25	58.6	58.6	58.6	95	57.2	0	0	---	0.00	29.897 
07:30	58.7	58.7	58.7	95	57.3	0	0	---	0.00	29.897 
07:35	58.7	58.7	58.7	95	57.3	0	0	---	0.00	29.897 
07:40	58.9	58.9	58.9	95	57.5	0	0	---	0.00	29.897 
07:45	59.0	59.0	59.0	95	57.6	0	0	---	0.00	29.898 
07:50	59.2	59.2	59.2	95	57.8	0	0	---	0.00	29.898 
07:55	59.6	59.6	59.6	96	58.5	0	0	---	0.00	29.898 
08:00	60.1	60.1	60.1	96	59.0	0	0	---	0.00	29.903 
08:05	60.5	60.5	60.5	96	59.4	0	0	---	0.00	29.903 
08:10	61.3	61.3	61.3	96	60.1	0	0	---	0.00	29.903 
08:15	61.6	61.6	61.6	95	60.2	0	0	---	0.00	29.901 
08:20	61.8	61.8	61.8	96	60.6	0	0	---	0.00	29.901 
08:25	62.7	62.7	62.7	96	61.5	0	0	---	0.00	29.901 
08:30	63.4	63.4	63.4	96	62.2	0	0	---	0.00	29.906 
08:35	63.7	63.7	63.7	95	62.2	0	0	---	0.00	29.906 
08:40	64.2	64.2	64.2	95	62.7	0	0	---	0.00	29.906 
08:45	64.8	64.8	64.8	95	63.3	0	0	---	0.00	29.905 
08:50	65.0	65.0	65.0	94	63.2	0	0	---	0.00	29.905 
08:55	65.0	65.0	65.0	94	63.2	0	0	---	0.00	29.905 
09:00	65.5	65.5	65.5	93	63.4	0	0	---	0.00	29.900 
09:05	66.0	66.0	66.0	93	63.9	0	0	---	0.00	29.900 
09:10	66.3	66.3	66.3	92	63.9	0	0	---	0.00	29.900 
09:15	66.6	66.6	66.6	92	64.2	0	0	---	0.00	29.897 
09:20	67.1	67.1	67.1	91	64.4	0	0	---	0.00	29.897 
09:25	67.8	67.8	67.8	90	64.8	0	0	---	0.00	29.897 
09:30	68.4	68.4	68.4	89	65.0	0	0	---	0.00	29.899 
09:35	68.9	68.9	68.9	86	64.5	0	0	---	0.00	29.899 
09:40	69.1	69.1	69.1	83	63.7	0	1	68	0.00	29.899 
09:45	69.4	69.4	69.4	76	61.5	0	0	---	0.00	29.902 
09:50	69.9	69.9	69.9	73	60.8	0	0	---	0.00	29.902 
09:55	70.8	70.8	70.8	72	61.3	0	0	---	0.00	29.902 
10:00	71.3	71.3	71.3	71	61.4	0	0	---	0.00	29.904 
10:05	72.0	72.0	72.0	70	61.7	0	0	---	0.00	29.904 
10:10	72.5	72.5	72.5	68	61.3	0	2	68	0.00	29.904 
10:15	73.2	73.2	73.2	69	62.4	0	2	68	0.00	29.905 
10:20	73.7	73.7	73.7	66	61.6	0	2	68	0.00	29.905 
10:25	74.0	74.0	74.0	65	61.5	1	3	68	0.00	29.905 
10:30	74.2	74.2	74.2	65	61.7	0	3	270	0.00	29.904 
10:35	74.7	74.7	74.7	65	62.1	0	1	270	0.00	29.904 
10:40	75.3	75.3	77.3	65	62.7	0	1	270	0.00	29.904 
10:45	75.8	75.8	77.8	63	62.3	0	2	135	0.00	29.901 
10:50	76.5	76.5	78.4	61	62.0	1	4	135	0.00	29.901 
10:55	76.7	76.7	78.5	62	62.7	0	2	135	0.00	29.901 
11:00	76.8	76.8	78.6	60	61.8	0	3	0	0.00	29.899 
11:05	77.0	77.0	78.8	59	61.6	0	2	0	0.00	29.899 
11:10	77.2	77.2	78.9	59	61.7	0	1	0	0.00	29.899 
11:15	77.7	77.7	79.3	57	61.2	1	2	0	0.00	29.902 
11:20	78.1	78.1	79.8	60	63.1	1	3	338	0.00	29.902 
11:25	78.8	78.8	80.1	55	61.2	1	3	90	0.00	29.902 
11:30	79.4	79.4	80.8	56	62.3	1	4	135	0.00	29.902 
11:35	79.6	79.6	81.1	57	63.0	1	3	112	0.00	29.902 
11:40	79.9	79.9	81.2	55	62.3	1	4	112	0.00	29.902 
11:45	79.9	79.9	81.2	55	62.3	1	3	112	0.00	29.895 
11:50	80.3	80.3	81.6	55	62.6	1	2	112	0.00	29.895 
11:55	80.1	80.1	81.4	55	62.4	1	2	112	0.00	29.895 
12:00	80.1	80.1	81.5	56	63.0	0	2	112	0.00	29.890 
12:05	80.3	80.3	81.5	54	62.1	1	4	112	0.00	29.890 
12:10	80.9	80.9	82.3	55	63.2	1	3	90	0.00	29.890 
12:15	81.2	81.2	82.6	55	63.5	0	2	90	0.00	29.889 
12:20	81.1	81.1	82.3	54	62.9	1	2	90	0.00	29.889 
12:25	81.1	81.1	82.3	54	62.9	0	1	68	0.00	29.889 
12:30	81.2	81.2	82.2	52	61.9	1	3	68	0.00	29.886 
12:35	81.1	81.1	82.5	55	63.4	0	1	248	0.00	29.886 
12:40	80.7	80.7	81.9	54	62.5	0	2	315	0.00	29.886 
12:45	80.9	80.9	82.0	53	62.1	1	9	112	0.00	29.880 
12:50	81.1	81.1	82.3	54	62.9	0	2	338	0.00	29.880 
12:55	81.6	81.6	82.6	52	62.2	0	3	338	0.00	29.880 
13:00	82.2	82.2	83.5	53	63.3	0	2	22	0.00	29.870 
13:05	82.4	82.4	83.2	50	61.9	0	1	22	0.00	29.870 
13:10	82.6	82.6	84.1	54	64.2	1	4	90	0.00	29.870 
13:15	82.4	82.4	82.7	47	60.1	2	5	90	0.00	29.866 
13:20	82.2	82.2	82.7	48	60.5	2	5	112	0.00	29.866 
13:25	82.2	82.2	83.1	51	62.2	2	7	90	0.00	29.866 
13:30	82.2	82.2	83.1	51	62.2	0	3	90	0.00	29.861 
13:35	82.0	82.0	82.9	51	62.1	1	5	112	0.00	29.861 
13:40	82.2	82.2	82.5	47	59.9	1	4	112	0.00	29.861 
13:45	82.2	82.2	82.5	47	59.9	0	4	112	0.00	29.858 
13:50	82.6	82.6	83.4	50	62.0	1	4	112	0.00	29.858 
13:55	82.8	82.8	83.2	47	60.5	2	5	112	0.00	29.858 
14:00	82.4	82.4	82.7	47	60.1	2	6	90	0.00	29.852 
14:05	82.6	82.6	83.1	48	60.9	1	3	90	0.00	29.852 
14:10	82.8	82.8	83.2	47	60.5	1	3	90	0.00	29.852 
14:15	83.0	83.0	83.4	47	60.7	0	4	90	0.00	29.852 
14:20	83.2	83.2	83.4	46	60.2	2	4	90	0.00	29.852 
14:25	83.2	83.2	83.4	46	60.2	1	5	90	0.00	29.852 
14:30	83.4	83.4	83.8	47	61.0	1	4	112	0.00	29.853 
14:35	83.4	83.4	84.2	49	62.2	1	3	270	0.00	29.853 
14:40	83.6	83.6	83.9	46	60.6	1	2	270	0.00	29.853 
14:45	83.6	83.6	83.5	44	59.3	0	2	270	0.00	29.851 
14:50	83.6	83.6	83.4	43	58.7	1	5	112	0.00	29.851 
14:55	83.8	83.8	84.1	46	60.8	1	4	90	0.00	29.851 
15:00	84.0	84.0	84.3	46	61.0	0	3	90	0.00	29.848 
15:05	84.3	84.3	84.5	45	60.6	1	4	112	0.00	29.848 
15:10	84.1	84.1	83.7	42	58.5	2	5	90	0.00	29.848 
15:15	83.8	83.8	83.6	43	58.9	1	6	90	0.00	29.850 
15:20	84.0	84.0	83.8	43	59.1	1	4	90	0.00	29.850 
15:25	84.0	84.0	84.0	44	59.7	1	4	90	0.00	29.850 
15:30	84.3	84.3	84.1	43	59.3	1	3	90	0.00	29.844 
15:35	84.5	84.5	84.5	44	60.2	1	5	90	0.00	29.844 
15:40	84.7	84.7	84.2	41	58.4	1	4	90	0.00	29.844 
15:45	84.3	84.3	84.5	45	60.6	3	8	90	0.00	29.838 
15:50	84.3	84.3	84.1	43	59.3	1	4	90	0.00	29.838 
15:55	84.1	84.1	84.1	44	59.8	1	5	90	0.00	29.838 
16:00	84.0	84.0	84.1	45	60.3	1	4	292	0.00	29.831 
16:05	84.1	84.1	84.4	46	61.1	1	5	90	0.00	29.831 
16:10	84.0	84.0	84.1	45	60.3	1	3	292	0.00	29.831 
16:15	83.8	83.8	83.7	44	59.5	1	3	292	0.00	29.828 
16:20	83.8	83.8	83.9	45	60.2	0	3	68	0.00	29.828 
16:25	84.0	84.0	84.3	46	61.0	1	6	45	0.00	29.828 
16:30	83.6	83.6	83.9	46	60.6	1	4	135	0.00	29.825 
16:35	83.8	83.8	84.5	48	62.0	1	6	112	0.00	29.825 
16:40	83.8	83.8	84.5	48	62.0	0	3	112	0.00	29.825 
16:45	83.8	83.8	84.3	47	61.4	1	5	292	0.00	29.822 
16:50	83.6	83.6	84.2	48	61.8	1	5	292	0.00	29.822 
16:55	83.6	83.6	84.1	47	61.2	1	4	270	0.00	29.822 
17:00	83.6	83.6	84.2	48	61.8	1	3	292	0.00	29.820 
17:05	83.6	83.6	84.4	49	62.4	0	2	112	0.00	29.820 
17:10	83.6	83.6	84.4	49	62.4	0	2	112	0.00	29.820 
17:15	83.6	83.6	84.2	48	61.8	1	3	112	0.00	29.825 
17:20	83.4	83.4	84.2	49	62.2	1	2	292	0.00	29.825 
17:25	83.4	83.4	84.4	50	62.8	1	3	68	0.00	29.825 
17:30	83.2	83.2	84.1	50	62.6	0	2	315	0.00	29.822 
17:35	83.2	83.2	84.5	52	63.7	0	2	315	0.00	29.822 
17:40	83.4	83.4	84.6	51	63.3	0	4	315	0.00	29.822 
17:45	83.2	83.2	84.3	51	63.2	0	4	270	0.00	29.812 
17:50	83.0	83.0	84.1	51	63.0	1	4	292	0.00	29.812 
17:55	83.0	83.0	84.1	51	63.0	0	2	292	0.00	29.812 
18:00	83.0	83.0	84.1	51	63.0	0	1	292	0.00	29.810 
18:05	82.8	82.8	84.0	52	63.3	0	2	292	0.00	29.810 
18:10	82.8	82.8	84.0	52	63.3	0	1	292	0.00	29.810 
18:15	82.6	82.6	83.8	52	63.2	0	3	292	0.00	29.811 
18:20	82.4	82.4	83.5	52	63.0	0	3	68	0.00	29.811 
18:25	82.2	82.2	83.3	52	62.8	0	1	68	0.00	29.811 
18:30	82.4	82.4	83.7	53	63.5	0	3	112	0.00	29.811 
18:35	82.4	82.4	83.7	53	63.5	0	2	112	0.00	29.811 
18:40	82.2	82.2	83.3	52	62.8	0	2	112	0.00	29.811 
18:45	82.2	82.2	83.6	54	63.9	0	1	112	0.00	29.814 
18:50	82.2	82.2	83.6	54	63.9	0	1	112	0.00	29.814 
18:55	82.2	82.2	83.6	54	63.9	0	1	112	0.00	29.814 
19:00	82.0	82.0	83.2	53	63.2	0	1	112	0.00	29.814 
19:05	81.8	81.8	83.2	54	63.5	0	1	112	0.00	29.814 
19:10	81.6	81.6	83.1	55	63.8	0	0	---	0.00	29.814 
19:15	81.4	81.4	82.8	55	63.7	0	0	---	0.00	29.811 
19:20	81.1	81.1	82.5	55	63.4	0	1	112	0.00	29.811 
19:25	80.9	80.9	82.4	56	63.7	0	1	112	0.00	29.811 
19:30	80.5	80.5	81.9	56	63.3	1	5	112	0.00	29.814 
19:35	80.1	80.1	81.7	58	64.0	1	4	292	0.00	29.814 
19:40	79.8	79.8	81.7	61	65.1	0	4	68	0.00	29.814 
19:45	79.4	79.4	81.3	62	65.2	0	1	68	0.00	29.818 
19:50	78.8	78.8	80.7	64	65.6	0	2	68	0.00	29.818 
19:55	78.6	78.6	80.6	65	65.8	0	2	68	0.00	29.818 
20:00	78.3	78.3	80.2	65	65.5	0	1	68	0.00	29.825 
20:05	78.1	78.1	80.0	66	65.8	0	2	68	0.00	29.825 
20:10	77.9	77.9	79.8	67	66.0	0	3	90	0.00	29.825 
20:15	77.6	77.6	79.5	68	66.2	0	4	90	0.00	29.823 
20:20	77.4	77.4	79.2	68	66.0	0	1	90	0.00	29.823 
20:25	77.2	77.2	79.0	68	65.8	1	5	90	0.00	29.823 
20:30	77.0	77.0	78.8	69	66.0	0	5	112	0.00	29.826 
20:35	76.8	76.8	78.6	69	65.8	0	1	112	0.00	29.826 
20:40	76.7	76.7	78.5	68	65.3	0	3	112	0.00	29.826 
20:45	76.5	76.5	78.3	68	65.1	0	1	112	0.00	29.829 
20:50	76.3	76.3	78.0	68	64.9	0	2	112	0.00	29.829 
20:55	76.0	76.0	77.8	67	64.2	0	2	112	0.00	29.829 
21:00	75.8	75.8	77.7	66	63.6	0	2	112	0.00	29.838 
21:05	75.6	75.6	77.5	65	63.0	0	3	158	0.00	29.838 
21:10	75.4	75.4	77.4	65	62.8	0	1	158	0.00	29.838 
21:15	75.1	75.1	77.1	65	62.5	0	0	---	0.00	29.840 
21:20	74.9	74.9	74.9	64	61.9	0	1	158	0.00	29.840 
21:25	74.7	74.7	74.7	64	61.7	0	0	---	0.00	29.840 
21:30	74.6	74.6	74.6	64	61.6	0	1	158	0.00	29.843 
21:35	74.4	74.4	74.4	64	61.4	0	0	---	0.00	29.843 
21:40	74.0	74.0	74.0	64	61.0	0	0	---	0.00	29.843 
21:45	73.7	73.7	73.7	64	60.7	0	0	---	0.00	29.847 
21:50	73.5	73.5	73.5	65	61.0	0	0	---	0.00	29.847 
21:55	73.2	73.2	73.2	65	60.7	0	0	---	0.00	29.847 
22:00	73.0	73.0	73.0	66	61.0	0	0	---	0.00	29.849 
22:05	72.7	72.7	72.7	66	60.7	0	0	---	0.00	29.849 
22:10	72.3	72.3	72.3	66	60.3	0	0	---	0.00	29.849 
22:15	72.1	72.1	72.1	67	60.5	0	0	---	0.00	29.850 
22:20	71.8	71.8	71.8	67	60.2	0	0	---	0.00	29.850 
22:25	71.6	71.6	71.6	68	60.5	0	0	---	0.00	29.850 
22:30	71.5	71.5	71.5	68	60.4	0	0	---	0.00	29.853 
22:35	71.3	71.3	71.3	68	60.2	0	0	---	0.00	29.853 
22:40	71.1	71.1	71.1	69	60.4	0	0	---	0.00	29.853 
22:45	70.9	70.9	70.9	69	60.2	0	0	---	0.00	29.850 
22:50	70.8	70.8	70.8	70	60.5	0	0	---	0.00	29.850 
22:55	70.6	70.6	70.6	72	61.1	0	0	---	0.00	29.850 
23:00	70.3	70.3	70.3	73	61.2	0	0	---	0.00	29.842 
23:05	70.1	70.1	70.1	73	61.0	0	0	---	0.00	29.842 
23:10	69.9	69.9	69.9	73	60.8	0	0	---	0.00	29.842 
23:15	69.8	69.8	69.8	74	61.1	0	0	---	0.00	29.837 
23:20	69.6	69.6	69.6	74	60.9	0	0	---	0.00	29.837 
23:25	69.4	69.4	69.4	74	60.7	0	0	---	0.00	29.837 
23:30	69.1	69.1	69.1	74	60.5	0	0	---	0.00	29.835 
23:35	68.9	68.9	68.9	74	60.3	0	0	---	0.00	29.835 
23:40	68.8	68.8	68.8	74	60.2	0	0	---	0.00	29.835 
23:45	68.6	68.6	68.6	74	60.0	0	0	---	0.00	29.826 
23:50	68.6	68.6	68.6	74	60.0	0	0	---	0.00	29.826 
23:55	68.4	68.4	68.4	74	59.8	0	0	---	0.00	29.826 

CoCoRaHS
IN-AL-39
A2 Web Hosting
Creative Commons License
GoDaddy
search engine by freefind advanced

loaded 2018-11-18 12:03:40 • last modified 2010-11-18 10:43:29
Privacy PolicyDisclaimer
• wx.awcolley.com is powered by PmWiki v.2002016 •
• all content (unless otherwise noted) © 2018 A W Colley